Flight Track Log - Related Links

Times and Time Zones

All times are in EDT time to prevent confusion due to time zone crossing. See the UCA5001 flight status page for this flight to view local times or setup timezone preferences in your user account.

Time Position Orientation Groundspeed Altitude Reporting Facility
EDT Latitude Longitude Course Direction KTS MPH feet Rate Location/Type
Thu 03:36:15 PM 38.9167 -77.5333 223° Southwest 149 171 2,700  Level Potomac TRACON
Thu 03:37:15 PM 38.8833 -77.5833 229° Southwest 190 219 3,000 1,240 Climbing Potomac TRACON
Thu 03:38:16 PM 38.8500 -77.6333 229° Southwest 181 208 5,200 1,869 Climbing Potomac TRACON
Thu 03:39:17 PM 38.8058 -77.6747 216° Southwest 173 199 6,800 1,140 Climbing Washington Center
Thu 03:40:17 PM 38.7675 -77.7217 224° Southwest 193 222 7,500 1,450 Climbing Washington Center
Thu 03:41:00 PM 38.6945 -77.7799 223° Southwest  Level FlightAware Approximate
Thu 03:41:17 PM 38.7269 -77.7658 220° Southwest 198 228 9,700  Level Washington Center
Thu 03:42:18 PM 38.6886 -77.8072 220° Southwest 192 221 11,500 1,636 Climbing Washington Center
Thu 03:43:18 PM 38.6544 -77.8486 223° Southwest 187 215 13,000 1,240 Climbing Washington Center
Thu 03:44:19 PM 38.6225 -77.8956 229° Southwest 182 209 14,000 454 Climbing Washington Center
Thu 03:45:17 PM 38.5856 -77.9633 235° Southwest 200 230 13,900 50 Descending Washington Center
Thu 03:46:18 PM 38.5447 -78.0339 234° Southwest 233 268 14,100 99 Climbing Washington Center
Thu 03:47:18 PM 38.4994 -78.1067 232° Southwest 257 296 14,100  Level Washington Center
Thu 03:48:18 PM 38.4539 -78.1794 231° Southwest 268 308 14,100  Level Washington Center
Thu 03:49:18 PM 38.4128 -78.2522 234° Southwest 268 308 14,100  Level Washington Center
Thu 03:50:19 PM 38.3697 -78.3194 231° Southwest 263 303 14,100  Level Washington Center
Thu 03:51:17 PM 38.3283 -78.3867 232° Southwest 258 297 14,100  Level Washington Center
Thu 03:52:17 PM 38.2892 -78.4539 233° Southwest 253 291 14,100  Level Washington Center
Thu 03:53:18 PM 38.2481 -78.5186 231° Southwest 240 276 14,100  Level Washington Center
Thu 03:54:18 PM 38.2089 -78.5883 234° Southwest 245 282 14,100 -198 Level Washington Center
Thu 03:55:19 PM 38.1633 -78.6578 230° Southwest 245 282 13,700 -496 Descending Washington Center
Thu 03:56:19 PM 38.1219 -78.7247 232° Southwest 254 292 13,100 -610 Descending Washington Center
Thu 03:57:17 PM 38.0761 -78.7994 232° Southwest 265 305 12,500 -559 Descending Washington Center
Thu 03:58:17 PM 38.0306 -78.8714 231° Southwest 270 311 12,000 -248 Descending Washington Center
Thu 03:59:18 PM 37.9867 -78.9431 232° Southwest 270 311 12,000  Level Washington Center
Thu 04:00:17 PM 37.9367 -79.0225 231° Southwest 270 311 12,000  Level Washington Center
Thu 04:01:17 PM 37.8908 -79.0914 230° Southwest 270 311 12,000  Level Washington Center
Thu 04:02:18 PM 37.8469 -79.1631 232° Southwest 270 311 12,000 49 Level Washington Center
Thu 04:03:19 PM 37.8031 -79.2319 231° Southwest 265 305 12,100 50 Climbing Washington Center
Thu 04:04:17 PM 37.7636 -79.2958 232° Southwest 265 305 12,100 -50 Level Washington Center
Thu 04:05:18 PM 37.7133 -79.3694 229° Southwest 265 305 12,000 -197 Descending Washington Center
Thu 04:06:19 PM 37.6739 -79.4331 232° Southwest 265 305 11,700 -555 Descending Washington Center
Thu 04:07:17 PM 37.6233 -79.5092 230° Southwest 265 305 10,900 -1,119 Descending Washington Center
Thu 04:08:17 PM 37.5756 -79.5644 223° Southwest 265 305 9,500 -1,388 Descending Washington Center
Thu 04:09:18 PM 37.5236 -79.6244 223° Southwest 245 282 8,100 -1,033 Descending Washington Center
Thu 04:10:19 PM 37.4781 -79.6744 221° Southwest 245 282 7,400 -744 Descending Washington Center
Thu 04:11:19 PM 37.4281 -79.7372 225° Southwest 245 282 6,600 -814 Descending Washington Center
Thu 04:12:17 PM 37.3800 -79.7972 225° Southwest 246 283 5,800 -1,169 Descending Washington Center
Thu 04:13:17 PM 37.3406 -79.8525 228° Southwest 231 266 4,300 -1,339 Descending Washington Center
Thu 04:14:18 PM 37.3056 -79.8975 226° Southwest 217 250 3,100 -1,180 Descending Washington Center

Login

Don't have an account? Register now (free) for customized features, flight alerts, and more!